Time;durP1;ratioP1;P1;durP2;ratioP2;P2;SDS_P1;SDS_P2;PMS_P1;PMS_P2;Temp;Humidity;BMP_temperature;BMP_pressure;BME280_temperature;BME280_humidity;BME280_pressure;Samples;Min_cycle;Max_cycle;Signal;HPM_P1;HPM_P2
2022/06/27 00:00:47;;;;;;;2.40;2.05;;;19.40;99.90;;;;;;5025170;28;20025;-35
2022/06/27 00:03:13;;;;;;;2.38;1.73;;;19.40;99.90;;;;;;5025397;28;20029;-35
2022/06/27 00:05:39;;;;;;;3.25;2.00;;;19.40;99.90;;;;;;5024834;28;20022;-35
2022/06/27 00:08:04;;;;;;;2.65;2.10;;;19.40;99.90;;;;;;5024903;28;20048;-34
2022/06/27 00:10:30;;;;;;;3.38;1.90;;;19.40;99.90;;;;;;5025258;28;20052;-34
2022/06/27 00:12:56;;;;;;;2.47;1.80;;;19.40;99.90;;;;;;5029435;28;20132;-35
2022/06/27 00:15:22;;;;;;;2.13;1.90;;;19.40;99.90;;;;;;5028764;28;20124;-35
2022/06/27 00:17:47;;;;;;;2.13;1.73;;;19.40;99.90;;;;;;5029457;28;20128;-34
2022/06/27 00:20:13;;;;;;;2.50;1.90;;;19.40;99.90;;;;;;5028758;28;20033;-34
2022/06/27 00:22:39;;;;;;;2.42;1.90;;;19.40;99.90;;;;;;5029848;28;20071;-33
2022/06/27 00:25:06;;;;;;;2.78;2.00;;;19.40;99.90;;;;;;5029616;28;20025;-35
2022/06/27 00:27:31;;;;;;;2.50;2.05;;;19.30;99.90;;;;;;5027064;28;20476;-34
2022/06/27 00:29:57;;;;;;;2.40;2.13;;;19.30;99.90;;;;;;5029999;28;20107;-34
2022/06/27 00:32:23;;;;;;;3.10;2.13;;;19.30;99.90;;;;;;5029941;28;20072;-35
2022/06/27 00:34:49;;;;;;;2.78;1.80;;;19.30;99.90;;;;;;5028640;28;20049;-36
2022/06/27 00:37:15;;;;;;;2.30;2.10;;;19.30;99.90;;;;;;5028944;28;20018;-35
2022/06/27 00:39:41;;;;;;;2.95;2.00;;;19.30;99.90;;;;;;5029333;28;20026;-33
2022/06/27 00:42:07;;;;;;;3.67;2.00;;;19.30;99.90;;;;;;5028211;28;20022;-34
2022/06/27 00:44:33;;;;;;;2.88;2.05;;;19.30;99.90;;;;;;5028814;28;20030;-35
2022/06/27 00:46:59;;;;;;;3.58;2.33;;;19.30;99.90;;;;;;5028959;28;20036;-37
2022/06/27 00:49:25;;;;;;;3.97;1.98;;;19.30;99.90;;;;;;5028122;28;20041;-35
2022/06/27 00:51:51;;;;;;;3.08;1.85;;;19.40;99.90;;;;;;5028674;28;20022;-34
2022/06/27 00:54:17;;;;;;;2.63;1.95;;;19.40;99.90;;;;;;5027952;28;20507;-35
2022/06/27 00:56:43;;;;;;;2.42;2.00;;;19.30;99.90;;;;;;5027882;28;20278;-34
2022/06/27 00:59:08;;;;;;;2.03;1.83;;;19.30;99.90;;;;;;5028646;28;20076;-34
2022/06/27 01:01:34;;;;;;;2.92;1.95;;;19.30;99.90;;;;;;5028281;28;20385;-35
2022/06/27 01:04:01;;;;;;;2.58;1.77;;;19.30;99.90;;;;;;5028537;28;20047;-34
2022/06/27 01:06:28;;;;;;;1.92;1.65;;;19.30;99.90;;;;;;5028419;28;20032;-37
2022/06/27 01:08:54;;;;;;;3.50;2.03;;;19.30;99.90;;;;;;5028668;28;20083;-36
2022/06/27 01:11:20;;;;;;;2.85;1.90;;;19.20;99.90;;;;;;5028056;28;20053;-35
2022/06/27 01:13:46;;;;;;;2.95;1.95;;;19.30;99.90;;;;;;5028035;28;20334;-36
2022/06/27 01:16:13;;;;;;;2.55;1.92;;;19.30;99.90;;;;;;5028504;28;20052;-36
2022/06/27 01:18:38;;;;;;;2.22;1.80;;;19.20;99.90;;;;;;5027273;28;20116;-34
2022/06/27 01:21:06;;;;;;;3.38;1.70;;;19.30;99.90;;;;;;5028085;28;20112;-35
2022/06/27 01:23:36;;;;;;;2.40;1.75;;;19.30;99.90;;;;;;5026478;28;20353;-34
2022/06/27 01:26:01;;;;;;;2.08;1.88;;;19.30;99.90;;;;;;5028846;28;20033;-35
2022/06/27 01:28:27;;;;;;;2.20;2.00;;;19.30;99.90;;;;;;5027867;28;20445;-36
2022/06/27 01:30:53;;;;;;;2.83;1.95;;;19.30;99.90;;;;;;5027735;28;20483;-35
2022/06/27 01:33:18;;;;;;;2.63;1.70;;;19.30;99.90;;;;;;5028125;28;20029;-34
2022/06/27 01:35:44;;;;;;;2.97;1.92;;;19.30;99.90;;;;;;5027853;28;20048;-35
2022/06/27 01:38:10;;;;;;;2.85;1.92;;;19.30;99.90;;;;;;5027625;28;20561;-34
2022/06/27 01:40:35;;;;;;;2.50;1.70;;;19.30;99.90;;;;;;5028100;28;20036;-37
2022/06/27 01:43:01;;;;;;;2.30;1.63;;;19.30;99.90;;;;;;5028029;28;20496;-33
2022/06/27 01:45:29;;;;;;;1.83;1.45;;;19.30;99.90;;;;;;5026680;28;20042;-34
2022/06/27 01:47:55;;;;;;;2.10;1.65;;;19.30;99.90;;;;;;5027996;28;20030;-34
2022/06/27 01:50:24;;;;;;;2.20;1.92;;;19.30;99.90;;;;;;5027687;28;20076;-34
2022/06/27 01:52:52;;;;;;;2.65;1.60;;;19.20;99.90;;;;;;5027811;28;20029;-35
2022/06/27 01:55:18;;;;;;;4.70;1.73;;;19.20;99.90;;;;;;5027126;28;20033;-37
2022/06/27 01:57:46;;;;;;;1.67;1.58;;;19.20;99.90;;;;;;5028105;28;20041;-35
2022/06/27 02:00:14;;;;;;;2.10;1.60;;;19.20;99.90;;;;;;5026950;28;20049;-35
2022/06/27 02:02:41;;;;;;;3.15;2.30;;;19.20;99.90;;;;;;5027447;28;20030;-35
2022/06/27 02:05:07;;;;;;;3.88;2.00;;;19.20;99.90;;;;;;5028064;28;20068;-35
2022/06/27 02:07:32;;;;;;;2.55;1.70;;;19.20;99.90;;;;;;5025797;28;20787;-35
2022/06/27 02:09:58;;;;;;;4.03;2.00;;;19.20;99.90;;;;;;5027394;28;20037;-34
2022/06/27 02:12:23;;;;;;;2.97;1.90;;;19.20;99.90;;;;;;5027190;28;20497;-35
2022/06/27 02:14:52;;;;;;;2.35;1.77;;;19.20;99.90;;;;;;5027178;28;20061;-34
2022/06/27 02:17:18;;;;;;;2.80;1.70;;;19.20;99.90;;;;;;5027498;28;20064;-34
2022/06/27 02:19:44;;;;;;;2.45;1.80;;;19.20;99.90;;;;;;5025960;28;20030;-35
2022/06/27 02:22:11;;;;;;;3.45;1.75;;;19.20;99.90;;;;;;5027605;28;20019;-36
2022/06/27 02:24:37;;;;;;;2.58;1.85;;;19.20;99.90;;;;;;5025408;28;20515;-34
2022/06/27 02:27:04;;;;;;;3.20;1.90;;;19.20;99.90;;;;;;5015516;28;20080;-35
2022/06/27 02:29:29;;;;;;;4.60;2.10;;;19.20;99.90;;;;;;5026744;28;20037;-35
2022/06/27 02:31:57;;;;;;;1.98;1.77;;;19.20;99.90;;;;;;5027266;28;20073;-34
2022/06/27 02:34:23;;;;;;;2.88;1.90;;;19.20;99.90;;;;;;5025319;28;20041;-35
2022/06/27 02:36:49;;;;;;;2.85;2.08;;;19.20;99.90;;;;;;5026714;28;20472;-34
2022/06/27 02:39:25;;;;;;;3.70;2.10;;;19.10;99.90;;;;;;5027083;28;20025;-34
2022/06/27 02:41:55;;;;;;;3.45;2.08;;;19.10;99.90;;;;;;5026175;28;20117;-35
2022/06/27 02:44:22;;;;;;;3.10;1.90;;;19.10;99.90;;;;;;5026239;28;20136;-35
2022/06/27 02:46:49;;;;;;;2.30;2.05;;;19.10;99.90;;;;;;5026725;28;20061;-35
2022/06/27 02:49:15;;;;;;;3.95;2.08;;;19.00;99.90;;;;;;5025916;28;20025;-35
2022/06/27 02:51:42;;;;;;;3.10;1.88;;;19.00;99.90;;;;;;5026376;28;20385;-35
2022/06/27 02:54:14;;;;;;;2.88;2.00;;;19.00;99.90;;;;;;5026995;28;20116;-35
2022/06/27 02:56:47;;;;;;;2.38;1.90;;;19.00;99.90;;;;;;5025077;28;20064;-36
2022/06/27 02:59:28;;;;;;;3.47;2.10;;;18.90;99.90;;;;;;5026761;28;20056;-35
2022/06/27 03:01:56;;;;;;;2.65;2.03;;;19.00;99.90;;;;;;5026245;28;20025;-35
2022/06/27 03:04:22;;;;;;;2.58;1.90;;;19.00;99.90;;;;;;5026554;28;20018;-36
2022/06/27 03:06:49;;;;;;;3.10;2.20;;;18.90;99.90;;;;;;5025975;28;20106;-35
2022/06/27 03:09:16;;;;;;;2.10;1.90;;;18.90;99.90;;;;;;5024902;28;20352;-35
2022/06/27 03:11:41;;;;;;;2.72;2.38;;;18.90;99.90;;;;;;5026239;28;20384;-35
2022/06/27 03:14:07;;;;;;;3.50;2.20;;;18.90;99.90;;;;;;5026398;28;20497;-35
2022/06/27 03:16:33;;;;;;;3.30;2.30;;;18.90;99.90;;;;;;5025045;28;20021;-34
2022/06/27 03:18:58;;;;;;;2.83;1.88;;;18.90;99.90;;;;;;5026715;28;20036;-34
2022/06/27 03:21:24;;;;;;;2.75;2.30;;;18.90;99.90;;;;;;5025488;28;20421;-34
2022/06/27 03:23:50;;;;;;;2.35;2.15;;;18.90;99.90;;;;;;5025574;28;20536;-36
2022/06/27 03:26:17;;;;;;;3.47;1.88;;;18.90;99.90;;;;;;5026604;28;20026;-35
2022/06/27 03:28:44;;;;;;;3.25;2.05;;;18.90;99.90;;;;;;5025907;28;20056;-35
2022/06/27 03:31:09;;;;;;;3.85;2.17;;;18.90;99.90;;;;;;5025861;28;20422;-35
2022/06/27 03:33:35;;;;;;;3.38;2.00;;;18.90;99.90;;;;;;5025712;28;20574;-35
2022/06/27 03:36:01;;;;;;;2.47;2.25;;;18.90;99.90;;;;;;5026150;28;20416;-35
2022/06/27 03:38:27;;;;;;;2.63;2.15;;;18.90;99.90;;;;;;5024281;28;20351;-35
2022/06/27 03:40:53;;;;;;;2.80;2.38;;;19.00;99.90;;;;;;5026314;28;20065;-35
2022/06/27 03:43:19;;;;;;;2.85;2.53;;;18.90;99.90;;;;;;5025929;28;20473;-34
2022/06/27 03:45:45;;;;;;;2.70;2.50;;;18.90;99.90;;;;;;5024507;28;20034;-34
2022/06/27 03:50:00;;;;;;;2.80;2.50;;;18.90;99.90;;;;;;5025926;28;20100;-35
2022/06/27 03:50:56;;;;;;;2.55;2.33;;;18.90;99.90;;;;;;5025660;28;20044;-34
2022/06/27 03:53:22;;;;;;;3.72;3.00;;;18.90;99.90;;;;;;5024716;28;20041;-35
2022/06/27 03:55:47;;;;;;;3.72;2.90;;;18.90;99.90;;;;;;5025649;28;20033;-35
2022/06/27 03:58:13;;;;;;;3.80;3.17;;;18.90;99.90;;;;;;5024659;28;20021;-35
2022/06/27 04:00:38;;;;;;;3.65;3.17;;;18.90;99.90;;;;;;5025048;28;20067;-34
2022/06/27 04:03:04;;;;;;;6.47;2.83;;;18.80;99.90;;;;;;5025399;28;20469;-35
2022/06/27 04:05:29;;;;;;;3.83;2.60;;;18.80;99.90;;;;;;5024208;28;20136;-36
2022/06/27 04:07:55;;;;;;;3.95;2.65;;;18.80;99.90;;;;;;5025881;28;20032;-36
2022/06/27 04:10:20;;;;;;;4.05;3.20;;;18.80;99.90;;;;;;5025057;28;20029;-34
2022/06/27 04:12:46;;;;;;;4.30;3.08;;;18.80;99.90;;;;;;5024355;28;20033;-35
2022/06/27 04:15:11;;;;;;;4.85;3.20;;;18.80;99.90;;;;;;5025691;28;20464;-34
2022/06/27 04:17:38;;;;;;;3.22;2.83;;;18.80;99.90;;;;;;5025010;28;20117;-36
2022/06/27 04:20:04;;;;;;;3.47;3.03;;;18.80;99.90;;;;;;5024544;28;20068;-34
2022/06/27 04:22:30;;;;;;;3.13;2.83;;;18.80;99.90;;;;;;5024625;28;20128;-35
2022/06/27 04:24:57;;;;;;;3.50;2.90;;;18.80;99.90;;;;;;5025656;28;20544;-35
2022/06/27 04:27:22;;;;;;;4.55;3.22;;;18.90;99.90;;;;;;5024693;28;20056;-36
2022/06/27 04:29:48;;;;;;;3.67;2.90;;;18.90;99.90;;;;;;5025113;28;20415;-35
2022/06/27 04:32:16;;;;;;;3.53;3.10;;;18.90;99.90;;;;;;5025657;28;20029;-35
2022/06/27 04:34:41;;;;;;;3.28;2.97;;;18.90;99.90;;;;;;5023898;28;20037;-34
2022/06/27 04:37:07;;;;;;;3.47;2.83;;;18.90;99.90;;;;;;5025600;28;20322;-35
2022/06/27 04:39:33;;;;;;;3.25;2.60;;;18.90;99.90;;;;;;5025334;28;20397;-35
2022/06/27 04:41:59;;;;;;;3.08;2.78;;;18.90;99.90;;;;;;5025195;28;20025;-35
2022/06/27 04:44:25;;;;;;;3.80;2.70;;;18.90;99.90;;;;;;5024662;28;20381;-35
2022/06/27 04:46:52;;;;;;;3.00;2.80;;;18.90;99.90;;;;;;5025385;28;20024;-35
2022/06/27 04:49:19;;;;;;;3.40;3.00;;;19.00;99.90;;;;;;5024430;28;20105;-35
2022/06/27 04:51:49;;;;;;;3.10;2.80;;;19.00;99.90;;;;;;5025420;28;20038;-35
2022/06/27 04:54:16;;;;;;;3.83;2.83;;;19.10;99.90;;;;;;5025033;28;20112;-34
2022/06/27 04:56:44;;;;;;;2.85;2.53;;;19.10;99.90;;;;;;5024573;28;20025;-35
2022/06/27 04:59:10;;;;;;;2.70;2.50;;;19.20;99.90;;;;;;5028745;28;20168;-34
2022/06/27 05:01:37;;;;;;;3.65;3.00;;;19.20;99.90;;;;;;5027624;28;20022;-34
2022/06/27 05:04:03;;;;;;;4.75;3.22;;;19.20;99.90;;;;;;5029245;28;20378;-36
2022/06/27 05:06:29;;;;;;;3.72;3.28;;;19.30;99.90;;;;;;5028264;28;20029;-37
2022/06/27 05:08:55;;;;;;;3.88;3.47;;;19.30;99.90;;;;;;5028321;28;20040;-35
2022/06/27 05:11:21;;;;;;;3.42;3.13;;;19.30;99.90;;;;;;5028005;28;20021;-34
2022/06/27 05:13:46;;;;;;;4.18;3.63;;;19.30;99.90;;;;;;5028022;28;20075;-36
2022/06/27 05:16:12;;;;;;;5.38;3.45;;;19.30;99.90;;;;;;5027613;28;20059;-35
2022/06/27 05:18:38;;;;;;;4.15;3.60;;;19.40;99.90;;;;;;5028503;28;20096;-33
2022/06/27 05:21:03;;;;;;;4.18;3.35;;;19.40;99.90;;;;;;5028549;28;20029;-33
2022/06/27 05:23:29;;;;;;;4.15;3.75;;;19.50;99.90;;;;;;5027282;28;20034;-35
2022/06/27 05:25:55;;;;;;;4.13;3.80;;;19.40;99.90;;;;;;5029145;28;20083;-35
2022/06/27 05:28:20;;;;;;;4.53;4.13;;;19.50;99.90;;;;;;5028515;28;20803;-34
2022/06/27 05:30:47;;;;;;;6.28;4.03;;;19.50;99.90;;;;;;5025032;28;20558;-34
2022/06/27 05:33:13;;;;;;;5.50;4.30;;;19.50;99.90;;;;;;5027508;28;20531;-35
2022/06/27 05:35:39;;;;;;;6.00;3.95;;;19.50;99.90;;;;;;5027442;28;20079;-36
2022/06/27 05:38:05;;;;;;;4.38;3.88;;;19.50;99.90;;;;;;5026786;28;20513;-36
2022/06/27 05:40:30;;;;;;;4.95;4.18;;;19.50;99.90;;;;;;5027320;28;20029;-34
2022/06/27 05:42:57;;;;;;;3.63;3.30;;;19.40;99.90;;;;;;5027326;28;20465;-36
2022/06/27 05:45:23;;;;;;;4.78;3.65;;;19.50;99.90;;;;;;5026884;28;20399;-35
2022/06/27 05:47:49;;;;;;;4.20;3.80;;;19.40;99.90;;;;;;5026571;28;20724;-34
2022/06/27 05:50:16;;;;;;;4.93;3.95;;;19.40;99.90;;;;;;5027105;28;20029;-35
2022/06/27 05:52:41;;;;;;;4.57;4.18;;;19.40;99.90;;;;;;5026047;28;20033;-35
2022/06/27 05:55:08;;;;;;;4.10;3.58;;;19.40;99.90;;;;;;5017856;28;20041;-35
2022/06/27 05:57:34;;;;;;;5.22;4.28;;;19.40;99.90;;;;;;5015177;28;20018;-35
2022/06/27 06:00:00;;;;;;;4.60;4.20;;;19.40;99.90;;;;;;5018664;28;20558;-35
2022/06/27 06:02:26;;;;;;;4.72;4.07;;;19.40;99.90;;;;;;5020030;28;20042;-35
2022/06/27 06:04:53;;;;;;;5.03;3.75;;;19.40;99.90;;;;;;5019573;28;20095;-35
2022/06/27 06:07:22;;;;;;;3.83;3.20;;;19.40;99.90;;;;;;5023084;28;20032;-36
2022/06/27 06:09:49;;;;;;;4.57;3.15;;;19.40;99.90;;;;;;5017159;28;20102;-35
2022/06/27 06:12:17;;;;;;;3.83;3.53;;;19.40;99.90;;;;;;5023785;28;20387;-35
2022/06/27 06:14:43;;;;;;;3.50;3.20;;;19.40;99.90;;;;;;5015693;28;20088;-35
2022/06/27 06:17:09;;;;;;;5.30;3.38;;;19.40;99.90;;;;;;5026569;28;20448;-34
2022/06/27 06:19:35;;;;;;;4.70;4.20;;;19.50;99.90;;;;;;5018772;28;20385;-35
2022/06/27 06:22:01;;;;;;;3.67;3.35;;;19.50;99.90;;;;;;5006690;28;20473;-36
2022/06/27 06:24:27;;;;;;;4.88;3.28;;;19.60;99.90;;;;;;5025712;28;20377;-34
2022/06/27 06:26:53;;;;;;;3.80;3.50;;;19.70;99.90;;;;;;5025841;28;20029;-35
2022/06/27 06:29:21;;;;;;;4.32;3.92;;;19.70;99.90;;;;;;5026501;28;20024;-34
2022/06/27 06:31:48;;;;;;;4.30;3.90;;;19.70;99.90;;;;;;5026737;28;20025;-37
2022/06/27 06:34:15;;;;;;;4.28;3.80;;;19.70;99.90;;;;;;5025350;28;20037;-35
2022/06/27 06:36:42;;;;;;;3.80;3.28;;;19.70;99.90;;;;;;5026443;28;20064;-35
2022/06/27 06:39:08;;;;;;;5.43;3.70;;;19.70;99.90;;;;;;5027021;28;20036;-34
2022/06/27 06:41:35;;;;;;;3.90;3.58;;;19.60;99.90;;;;;;5025506;28;20026;-34
2022/06/27 06:44:02;;;;;;;4.03;3.63;;;19.60;99.90;;;;;;5026645;28;20037;-36
2022/06/27 06:46:28;;;;;;;4.40;4.00;;;19.60;99.90;;;;;;5026320;28;20025;-35
2022/06/27 06:49:02;;;;;;;4.60;4.18;;;19.60;99.90;;;;;;5025844;28;20037;-35
2022/06/27 06:51:29;;;;;;;6.68;4.63;;;19.60;99.90;;;;;;5026375;28;20029;-35
2022/06/27 06:53:54;;;;;;;5.30;3.60;;;19.40;99.90;;;;;;5027045;28;20075;-37
2022/06/27 06:56:21;;;;;;;5.40;4.05;;;19.40;99.90;;;;;;5025620;28;20025;-34
2022/06/27 06:58:46;;;;;;;7.78;4.95;;;19.40;99.90;;;;;;5026593;28;20052;-34
2022/06/27 07:01:12;;;;;;;7.18;4.47;;;19.30;99.90;;;;;;5025764;28;20100;-35
2022/06/27 07:03:39;;;;;;;4.65;4.20;;;19.30;99.90;;;;;;5026374;28;20063;-34
2022/06/27 07:06:05;;;;;;;5.43;4.35;;;19.30;99.90;;;;;;5026841;28;20029;-36
2022/06/27 07:08:31;;;;;;;4.88;4.35;;;19.40;99.90;;;;;;5025674;28;20029;-35
2022/06/27 07:10:58;;;;;;;5.20;4.70;;;19.40;99.90;;;;;;5025806;28;20025;-35
2022/06/27 07:13:24;;;;;;;5.82;4.00;;;19.50;99.90;;;;;;5026119;28;20565;-35
2022/06/27 07:15:50;;;;;;;5.90;4.25;;;19.50;99.90;;;;;;5025022;28;20037;-35
2022/06/27 07:18:17;;;;;;;5.20;4.70;;;19.60;99.90;;;;;;5026370;28;20033;-36
2022/06/27 07:20:43;;;;;;;6.57;4.88;;;19.60;99.90;;;;;;5025679;28;20033;-36
2022/06/27 07:23:09;;;;;;;6.45;5.03;;;19.50;99.90;;;;;;5025615;28;20029;-35
2022/06/27 07:25:35;;;;;;;7.22;5.63;;;19.60;99.90;;;;;;5025224;28;20091;-35
2022/06/27 07:28:01;;;;;;;5.70;5.07;;;19.70;99.90;;;;;;5026284;28;20028;-35
2022/06/27 07:30:26;;;;;;;5.03;4.22;;;19.60;99.90;;;;;;5024966;28;20420;-35
2022/06/27 07:32:52;;;;;;;5.80;5.05;;;19.60;99.90;;;;;;5026941;28;20622;-35
2022/06/27 07:35:18;;;;;;;6.38;5.50;;;19.60;99.90;;;;;;5025683;28;20033;-35
2022/06/27 07:37:49;;;;;;;6.22;5.10;;;19.60;99.90;;;;;;5024977;28;20469;-36
2022/06/27 07:40:17;;;;;;;5.15;4.60;;;19.60;99.90;;;;;;5024062;28;20021;-35
2022/06/27 07:42:44;;;;;;;4.25;3.80;;;19.60;99.90;;;;;;5015955;28;20052;-35
2022/06/27 07:45:11;;;;;;;6.20;4.82;;;19.70;99.90;;;;;;5024591;28;20133;-36
2022/06/27 07:47:38;;;;;;;5.38;4.85;;;19.80;99.90;;;;;;5014792;28;20021;-35
2022/06/27 07:50:04;;;;;;;4.43;3.97;;;19.80;99.90;;;;;;5025205;28;20021;-35
2022/06/27 07:52:29;;;;;;;4.45;4.03;;;19.90;99.90;;;;;;5013909;28;20554;-35
2022/06/27 07:54:55;;;;;;;4.00;3.60;;;19.90;99.90;;;;;;5025955;28;20034;-35
2022/06/27 07:57:21;;;;;;;4.85;4.35;;;19.90;99.90;;;;;;5012378;28;20026;-34
2022/06/27 07:59:48;;;;;;;5.60;4.40;;;19.90;99.90;;;;;;5006162;28;20136;-36
2022/06/27 08:02:13;;;;;;;4.85;4.45;;;20.00;99.90;;;;;;5017082;28;20032;-35
2022/06/27 08:04:41;;;;;;;5.25;4.45;;;20.00;99.90;;;;;;5005650;28;20033;-35
2022/06/27 08:07:06;;;;;;;5.20;4.03;;;20.10;99.90;;;;;;5014997;28;20022;-35
2022/06/27 08:09:32;;;;;;;6.00;4.13;;;20.20;99.90;;;;;;5007980;28;20091;-35
2022/06/27 08:12:00;;;;;;;5.07;4.20;;;20.30;99.90;;;;;;5012252;28;20025;-38
2022/06/27 08:14:25;;;;;;;3.95;3.55;;;20.40;99.90;;;;;;5010705;28;20048;-36
2022/06/27 08:16:52;;;;;;;3.95;3.60;;;20.50;99.90;;;;;;5010625;28;20021;-36
2022/06/27 08:19:23;;;;;;;3.90;3.50;;;20.60;99.90;;;;;;5012617;28;20381;-36
2022/06/27 08:21:49;;;;;;;4.53;3.37;;;20.70;99.90;;;;;;5007891;28;20022;-35
2022/06/27 08:24:17;;;;;;;5.50;3.58;;;20.70;99.90;;;;;;5015101;28;20032;-35
2022/06/27 08:26:44;;;;;;;4.90;3.38;;;20.80;99.90;;;;;;5013814;28;20026;-35
2022/06/27 08:29:10;;;;;;;4.32;3.40;;;20.90;99.90;;;;;;5013293;28;20036;-35
2022/06/27 08:31:39;;;;;;;4.10;3.70;;;21.00;99.90;;;;;;5023367;28;20326;-36
2022/06/27 08:34:06;;;;;;;4.47;3.75;;;21.10;99.90;;;;;;5017629;28;20032;-38
2022/06/27 08:36:34;;;;;;;4.75;4.15;;;21.20;99.90;;;;;;5028821;28;20357;-36
2022/06/27 08:39:01;;;;;;;4.50;4.10;;;21.20;99.90;;;;;;5027942;28;20026;-37
2022/06/27 08:41:28;;;;;;;4.30;3.40;;;21.20;99.90;;;;;;5028321;28;20021;-36
2022/06/27 08:43:58;;;;;;;3.60;3.28;;;21.30;99.90;;;;;;5021890;28;20050;-36
2022/06/27 08:46:24;;;;;;;4.05;3.42;;;21.30;99.90;;;;;;5029025;28;20067;-36
2022/06/27 08:48:50;;;;;;;4.90;3.33;;;21.40;99.90;;;;;;5015299;28;20038;-36
2022/06/27 08:51:17;;;;;;;3.05;2.63;;;21.50;99.90;;;;;;5029188;28;20021;-35
2022/06/27 08:53:44;;;;;;;4.05;3.30;;;21.60;99.90;;;;;;5017984;28;20038;-35
2022/06/27 08:56:12;;;;;;;3.45;3.00;;;21.70;99.90;;;;;;5026893;28;20052;-35
2022/06/27 08:58:39;;;;;;;3.38;2.92;;;21.70;99.90;;;;;;5020274;28;20042;-37
2022/06/27 09:01:05;;;;;;;5.57;3.20;;;21.80;99.90;;;;;;5023792;28;20037;-35
2022/06/27 09:03:32;;;;;;;3.92;3.35;;;21.80;99.90;;;;;;5022190;28;20026;-41
2022/06/27 09:06:06;;;;;;;3.80;3.40;;;21.90;99.90;;;;;;5023060;28;20479;-35
2022/06/27 09:08:54;;;;;;;4.68;3.22;;;22.00;99.90;;;;;;5023568;28;20108;-36
2022/06/27 09:11:31;;;;;;;3.67;3.30;;;22.00;99.90;;;;;;5023931;28;20092;-35
2022/06/27 09:13:57;;;;;;;4.13;3.50;;;22.00;99.90;;;;;;5022036;28;20445;-35
2022/06/27 09:16:23;;;;;;;4.18;3.15;;;22.00;99.90;;;;;;5022043;28;20483;-35
2022/06/27 09:18:49;;;;;;;3.53;2.90;;;21.90;99.90;;;;;;5024262;28;20546;-35
2022/06/27 09:21:15;;;;;;;4.47;3.78;;;21.90;99.90;;;;;;5019876;28;20109;-37
2022/06/27 09:23:41;;;;;;;3.65;3.25;;;22.00;99.90;;;;;;5026118;28;20025;-36
2022/06/27 09:26:22;;;;;;;2.72;2.53;;;21.90;99.90;;;;;;5017075;28;20140;-35
2022/06/27 09:28:55;;;;;;;3.47;3.10;;;21.90;99.90;;;;;;5025910;28;20033;-37
2022/06/27 09:31:28;;;;;;;3.10;2.80;;;22.00;99.90;;;;;;5018035;28;20025;-35
2022/06/27 09:33:59;;;;;;;3.92;2.72;;;22.10;99.90;;;;;;5028203;28;20451;-35
2022/06/27 09:36:28;;;;;;;3.55;2.30;;;22.10;99.90;;;;;;5026637;28;20029;-36
2022/06/27 09:38:55;;;;;;;2.90;2.42;;;22.20;99.90;;;;;;5027709;28;20018;-37
2022/06/27 09:41:25;;;;;;;3.95;2.63;;;22.30;99.90;;;;;;5027841;28;20075;-35
2022/06/27 09:43:52;;;;;;;3.78;2.50;;;22.30;99.90;;;;;;5027286;28;20025;-35
2022/06/27 09:46:18;;;;;;;2.50;2.30;;;22.30;99.90;;;;;;5028093;28;20027;-36
2022/06/27 09:48:45;;;;;;;4.22;3.20;;;22.30;99.90;;;;;;5027566;28;20034;-35
2022/06/27 09:51:16;;;;;;;4.00;2.83;;;22.40;99.90;;;;;;5026849;28;20029;-36
2022/06/27 09:53:50;;;;;;;2.67;2.40;;;22.40;99.90;;;;;;5028311;28;20059;-35
2022/06/27 09:56:20;;;;;;;3.33;2.33;;;22.30;99.90;;;;;;5027745;28;20036;-36
2022/06/27 09:58:46;;;;;;;5.32;2.33;;;22.30;99.90;;;;;;5027168;28;20041;-35
2022/06/27 10:01:12;;;;;;;2.17;1.98;;;22.20;99.90;;;;;;5027980;28;20099;-35
2022/06/27 10:03:38;;;;;;;2.75;2.13;;;22.10;99.90;;;;;;5027383;28;20029;-35
2022/06/27 10:06:05;;;;;;;3.67;2.55;;;22.10;99.90;;;;;;5026572;28;20428;-34
2022/06/27 10:08:32;;;;;;;3.55;2.45;;;22.00;99.90;;;;;;5027595;28;20091;-34
2022/06/27 10:11:04;;;;;;;5.90;2.83;;;22.00;99.90;;;;;;5027325;28;20069;-34
2022/06/27 10:13:30;;;;;;;4.93;3.03;;;22.00;99.90;;;;;;5027021;28;20025;-35
2022/06/27 10:15:58;;;;;;;3.30;2.53;;;22.10;99.90;;;;;;5027734;28;20516;-35
2022/06/27 10:18:24;;;;;;;3.53;2.67;;;22.10;99.90;;;;;;5025983;28;20025;-35
2022/06/27 10:20:52;;;;;;;6.05;2.90;;;22.30;99.90;;;;;;5027456;28;20013;-34
2022/06/27 10:23:26;;;;;;;4.15;2.92;;;22.40;99.90;;;;;;5027510;28;20477;-36
2022/06/27 10:25:53;;;;;;;4.05;3.15;;;22.50;99.90;;;;;;5026652;28;20072;-34
2022/06/27 10:28:21;;;;;;;3.63;3.00;;;22.40;99.90;;;;;;5025478;28;20643;-35
2022/06/27 10:30:54;;;;;;;5.38;3.08;;;22.40;99.90;;;;;;5011060;28;20025;-35
2022/06/27 10:33:25;;;;;;;6.35;3.70;;;22.40;99.90;;;;;;5026681;28;20107;-34
2022/06/27 10:36:04;;;;;;;3.95;3.40;;;22.30;99.90;;;;;;5026830;28;20033;-35
2022/06/27 10:38:38;;;;;;;6.15;2.92;;;22.30;99.90;;;;;;5026111;28;20033;-35
2022/06/27 10:41:08;;;;;;;3.83;3.15;;;22.30;99.90;;;;;;5025809;28;20124;-35
2022/06/27 10:43:47;;;;;;;4.40;2.95;;;22.30;99.90;;;;;;5025359;28;20552;-34
2022/06/27 10:46:13;;;;;;;3.15;2.80;;;22.40;99.90;;;;;;5025772;28;20067;-35
2022/06/27 10:48:45;;;;;;;3.85;3.10;;;22.50;99.90;;;;;;5027053;28;20033;-36
2022/06/27 10:51:26;;;;;;;2.88;2.53;;;22.60;99.90;;;;;;5027303;28;20026;-35
2022/06/27 10:54:09;;;;;;;3.40;2.80;;;22.70;99.90;;;;;;5026126;28;20049;-34
2022/06/27 10:56:36;;;;;;;2.67;1.95;;;22.80;99.90;;;;;;5025926;28;20105;-37
2022/06/27 10:59:04;;;;;;;3.42;2.83;;;22.90;99.90;;;;;;5026792;28;20049;-35
2022/06/27 11:01:31;;;;;;;5.57;3.08;;;23.00;99.60;;;;;;5025693;28;20052;-34
2022/06/27 11:03:56;;;;;;;4.13;2.60;;;23.00;99.30;;;;;;5022605;28;20032;-34
2022/06/27 11:06:23;;;;;;;2.38;2.17;;;23.00;99.10;;;;;;5026611;28;20037;-36
2022/06/27 11:08:51;;;;;;;3.92;2.10;;;23.00;99.10;;;;;;5025269;28;20028;-36
2022/06/27 11:11:20;;;;;;;2.40;2.05;;;23.00;99.00;;;;;;5026451;28;20091;-35
2022/06/27 11:13:52;;;;;;;2.25;1.85;;;23.10;99.00;;;;;;5025824;28;20021;-35
2022/06/27 11:16:29;;;;;;;2.28;1.60;;;23.20;98.80;;;;;;5024935;28;20037;-33
2022/06/27 11:19:00;;;;;;;3.30;1.40;;;23.30;98.30;;;;;;5025982;28;20033;-34
2022/06/27 11:21:33;;;;;;;2.63;1.45;;;23.30;98.10;;;;;;5025333;28;20039;-36
2022/06/27 11:24:00;;;;;;;1.98;1.50;;;23.30;97.90;;;;;;5026873;28;20061;-36
2022/06/27 11:26:31;;;;;;;2.67;1.50;;;23.30;97.80;;;;;;5006265;28;20045;-36
2022/06/27 11:32:08;;;;;;;3.08;2.22;;;23.20;97.70;;;;;;5006870;28;20117;-35
2022/06/27 11:34:36;;;;;;;2.92;1.60;;;23.20;97.50;;;;;;5024346;28;20030;-35
2022/06/27 11:37:08;;;;;;;3.10;2.33;;;23.30;97.50;;;;;;5025297;28;20099;-35
2022/06/27 11:39:35;;;;;;;2.42;2.05;;;23.20;97.30;;;;;;5025106;28;20017;-35
2022/06/27 11:42:11;;;;;;;3.92;2.78;;;23.20;97.50;;;;;;5026050;28;20057;-35
2022/06/27 11:44:39;;;;;;;3.10;2.60;;;23.10;97.70;;;;;;5024299;28;20057;-35
2022/06/27 11:47:07;;;;;;;6.55;2.90;;;23.00;97.90;;;;;;5031009;28;20060;-35
2022/06/27 11:49:38;;;;;;;3.88;2.75;;;23.00;98.10;;;;;;5030710;28;20388;-36
2022/06/27 11:52:10;;;;;;;2.47;2.28;;;23.00;98.20;;;;;;5025678;28;20113;-35
2022/06/27 11:54:46;;;;;;;;;;;23.00;98.20;;;;;;5025602;28;20049;-35
2022/06/27 11:57:26;;;;;;;3.72;2.00;;;23.00;98.30;;;;;;5025516;28;19971;-35
2022/06/27 11:59:54;;;;;;;4.18;2.10;;;23.00;98.30;;;;;;5025634;28;20053;-35
2022/06/27 12:02:35;;;;;;;2.78;2.00;;;22.90;98.30;;;;;;5026035;28;20033;-36
2022/06/27 12:05:17;;;;;;;3.67;1.90;;;22.90;98.30;;;;;;5025292;28;20318;-34
2022/06/27 12:08:07;;;;;;;4.60;2.50;;;22.90;98.40;;;;;;5031879;28;20363;-35
2022/06/27 12:10:36;;;;;;;3.80;2.00;;;23.00;98.30;;;;;;5030585;28;20481;-36
2022/06/27 12:13:02;;;;;;;3.22;2.00;;;23.00;98.10;;;;;;5012878;28;20688;-35
2022/06/27 12:15:28;;;;;;;3.38;2.08;;;23.10;97.90;;;;;;5025973;28;20033;-35
2022/06/27 12:17:58;;;;;;;3.42;2.17;;;23.10;97.80;;;;;;5031197;28;20032;-36
2022/06/27 12:20:25;;;;;;;2.22;1.88;;;23.10;97.70;;;;;;5031179;28;20424;-35
2022/06/27 12:22:51;;;;;;;4.10;1.90;;;23.20;97.70;;;;;;5032402;28;20125;-36
2022/06/27 12:25:17;;;;;;;3.72;2.00;;;23.30;97.60;;;;;;5030831;28;20120;-35
2022/06/27 12:27:43;;;;;;;3.00;1.60;;;23.40;97.40;;;;;;5031695;28;20026;-38
2022/06/27 12:30:10;;;;;;;3.80;2.47;;;23.60;97.20;;;;;;5027822;28;20240;-36
2022/06/27 12:32:36;;;;;;;2.30;2.10;;;23.70;97.00;;;;;;5021459;28;20021;-34
2022/06/27 12:35:02;;;;;;;4.45;2.20;;;23.70;97.00;;;;;;5030613;28;20045;-35
2022/06/27 12:37:28;;;;;;;3.47;1.95;;;23.70;96.70;;;;;;5020835;28;20026;-37
2022/06/27 12:39:54;;;;;;;3.30;1.98;;;23.70;96.70;;;;;;5016139;28;20040;-35
2022/06/27 12:42:19;;;;;;;2.72;1.92;;;23.60;96.80;;;;;;5022790;28;20026;-35
2022/06/27 12:44:45;;;;;;;2.97;1.58;;;23.60;96.90;;;;;;5012104;28;20030;-36
2022/06/27 12:47:10;;;;;;;3.67;2.28;;;23.60;97.00;;;;;;5030728;28;20025;-36
2022/06/27 12:49:36;;;;;;;3.25;2.20;;;23.50;97.10;;;;;;5031263;28;20037;-36
2022/06/27 12:52:02;;;;;;;2.58;1.77;;;23.50;97.10;;;;;;5031323;28;20021;-35